sensor_id;sensor_type;location;lat;lon;timestamp;pressure;altitude;pressure_sealevel;temperature;humidity
12073;BME280;6098;49.004;8.372;2023-10-09T00:07:24;100966.56;;;16.15;71.74
12073;BME280;6098;49.004;8.372;2023-10-09T00:22:16;100972.31;;;16.08;72.05
12073;BME280;6098;49.004;8.372;2023-10-09T00:37:22;100955.11;;;16.12;73.31
12073;BME280;6098;49.004;8.372;2023-10-09T00:52:30;100935.78;;;16.32;72.71
12073;BME280;6098;49.004;8.372;2023-10-09T01:07:28;100924.87;;;16.36;72.59
12073;BME280;6098;49.004;8.372;2023-10-09T01:22:19;100914.54;;;16.37;72.96
12073;BME280;6098;49.004;8.372;2023-10-09T01:37:12;100912.33;;;16.37;73.18
12073;BME280;6098;49.004;8.372;2023-10-09T01:52:03;100898.00;;;16.21;73.81
12073;BME280;6098;49.004;8.372;2023-10-09T02:07:03;100894.92;;;16.12;74.70
12073;BME280;6098;49.004;8.372;2023-10-09T02:21:56;100901.84;;;16.00;75.35
12073;BME280;6098;49.004;8.372;2023-10-09T02:36:54;100886.41;;;15.89;75.36
12073;BME280;6098;49.004;8.372;2023-10-09T02:51:56;100876.39;;;15.84;74.89
12073;BME280;6098;49.004;8.372;2023-10-09T03:06:47;100852.16;;;15.79;74.76
12073;BME280;6098;49.004;8.372;2023-10-09T03:21:46;100844.47;;;15.82;74.44
12073;BME280;6098;49.004;8.372;2023-10-09T03:36:39;100858.53;;;15.85;74.16
12073;BME280;6098;49.004;8.372;2023-10-09T03:51:31;100858.67;;;15.82;74.65
12073;BME280;6098;49.004;8.372;2023-10-09T04:06:22;100871.36;;;15.70;75.47
12073;BME280;6098;49.004;8.372;2023-10-09T04:21:14;100877.21;;;15.60;76.33
12073;BME280;6098;49.004;8.372;2023-10-09T04:36:16;100890.06;;;15.53;77.19
12073;BME280;6098;49.004;8.372;2023-10-09T04:51:09;100884.48;;;15.40;77.83
12073;BME280;6098;49.004;8.372;2023-10-09T05:06:17;100877.72;;;15.33;78.16
12073;BME280;6098;49.004;8.372;2023-10-09T05:21:31;100872.33;;;15.25;78.39
12073;BME280;6098;49.004;8.372;2023-10-09T05:36:27;100873.36;;;15.31;78.40
12073;BME280;6098;49.004;8.372;2023-10-09T05:51:17;100889.66;;;15.34;78.14
12073;BME280;6098;49.004;8.372;2023-10-09T06:06:34;100884.67;;;15.36;77.93
12073;BME280;6098;49.004;8.372;2023-10-09T06:21:26;100911.74;;;15.47;76.58
12073;BME280;6098;49.004;8.372;2023-10-09T06:36:35;100934.62;;;15.52;76.29
12073;BME280;6098;49.004;8.372;2023-10-09T06:51:28;100949.14;;;15.73;75.99
12073;BME280;6098;49.004;8.372;2023-10-09T07:06:20;100934.47;;;15.90;75.90
12073;BME280;6098;49.004;8.372;2023-10-09T07:21:26;100962.41;;;16.10;75.03
12073;BME280;6098;49.004;8.372;2023-10-09T07:36:18;100938.07;;;16.31;74.56
12073;BME280;6098;49.004;8.372;2023-10-09T07:51:21;100941.30;;;16.54;74.12
12073;BME280;6098;49.004;8.372;2023-10-09T08:06:16;100933.78;;;16.77;73.21
12073;BME280;6098;49.004;8.372;2023-10-09T08:21:33;100950.84;;;17.83;69.09
12073;BME280;6098;49.004;8.372;2023-10-09T08:36:36;100949.56;;;17.97;68.56
12073;BME280;6098;49.004;8.372;2023-10-09T08:51:28;100980.13;;;18.16;68.16
12073;BME280;6098;49.004;8.372;2023-10-09T09:06:22;100981.66;;;18.35;68.54
12073;BME280;6098;49.004;8.372;2023-10-09T09:21:17;100963.05;;;18.82;65.88
12073;BME280;6098;49.004;8.372;2023-10-09T09:36:13;100975.21;;;19.29;64.27
12073;BME280;6098;49.004;8.372;2023-10-09T09:51:07;100982.67;;;19.85;63.49
12073;BME280;6098;49.004;8.372;2023-10-09T10:06:02;100972.95;;;20.16;63.13
12073;BME280;6098;49.004;8.372;2023-10-09T10:21:12;100964.62;;;20.38;60.82
12073;BME280;6098;49.004;8.372;2023-10-09T10:36:17;100947.84;;;21.09;59.47
12073;BME280;6098;49.004;8.372;2023-10-09T10:51:09;100953.86;;;21.07;58.11
12073;BME280;6098;49.004;8.372;2023-10-09T11:06:02;100952.52;;;21.00;59.17
12073;BME280;6098;49.004;8.372;2023-10-09T11:21:14;100952.08;;;21.13;59.25
12073;BME280;6098;49.004;8.372;2023-10-09T11:36:11;100933.05;;;21.50;57.29
12073;BME280;6098;49.004;8.372;2023-10-09T11:51:03;100913.73;;;21.91;55.60
12073;BME280;6098;49.004;8.372;2023-10-09T12:06:03;100904.17;;;22.60;53.12
12073;BME280;6098;49.004;8.372;2023-10-09T12:21:08;100883.12;;;23.40;52.10
12073;BME280;6098;49.004;8.372;2023-10-09T12:36:02;100836.80;;;23.75;49.90
12073;BME280;6098;49.004;8.372;2023-10-09T12:50:54;100826.95;;;23.85;51.75
12073;BME280;6098;49.004;8.372;2023-10-09T13:05:51;100833.61;;;24.22;51.56
12073;BME280;6098;49.004;8.372;2023-10-09T13:20:54;100803.72;;;24.53;49.70
12073;BME280;6098;49.004;8.372;2023-10-09T13:35:48;100812.11;;;24.89;47.37
12073;BME280;6098;49.004;8.372;2023-10-09T13:50:42;100803.56;;;24.94;47.02
12073;BME280;6098;49.004;8.372;2023-10-09T14:05:34;100787.56;;;24.86;47.89
12073;BME280;6098;49.004;8.372;2023-10-09T14:20:26;100779.43;;;24.81;48.46
12073;BME280;6098;49.004;8.372;2023-10-09T14:35:18;100771.19;;;24.73;49.15
12073;BME280;6098;49.004;8.372;2023-10-09T14:50:12;100752.38;;;24.66;48.86
12073;BME280;6098;49.004;8.372;2023-10-09T15:05:05;100746.57;;;24.45;47.51
12073;BME280;6098;49.004;8.372;2023-10-09T15:19:58;100755.45;;;24.32;48.25
12073;BME280;6098;49.004;8.372;2023-10-09T15:35:06;100762.14;;;24.13;47.72
12073;BME280;6098;49.004;8.372;2023-10-09T15:50:08;100762.74;;;23.96;48.51
12073;BME280;6098;49.004;8.372;2023-10-09T16:05:07;100755.72;;;23.74;50.33
12073;BME280;6098;49.004;8.372;2023-10-09T16:20:03;100756.55;;;23.49;51.04
12073;BME280;6098;49.004;8.372;2023-10-09T16:34:57;100757.75;;;23.24;52.51
12073;BME280;6098;49.004;8.372;2023-10-09T16:49:56;100773.08;;;22.93;53.54
12073;BME280;6098;49.004;8.372;2023-10-09T17:04:48;100770.70;;;22.62;54.90
12073;BME280;6098;49.004;8.372;2023-10-09T17:19:39;100781.17;;;22.39;55.83
12073;BME280;6098;49.004;8.372;2023-10-09T17:34:31;100804.11;;;22.22;56.72
12073;BME280;6098;49.004;8.372;2023-10-09T17:49:23;100781.03;;;21.96;57.86
12073;BME280;6098;49.004;8.372;2023-10-09T18:04:14;100797.28;;;21.62;59.71
12073;BME280;6098;49.004;8.372;2023-10-09T18:19:06;100792.82;;;21.50;60.35
12073;BME280;6098;49.004;8.372;2023-10-09T18:33:59;100782.17;;;21.36;60.57
12073;BME280;6098;49.004;8.372;2023-10-09T18:49:05;100795.59;;;21.31;60.01
12073;BME280;6098;49.004;8.372;2023-10-09T19:04:14;100797.45;;;21.25;59.72
12073;BME280;6098;49.004;8.372;2023-10-09T19:19:17;100793.92;;;21.12;59.02
12073;BME280;6098;49.004;8.372;2023-10-09T19:34:10;100805.78;;;20.98;59.38
12073;BME280;6098;49.004;8.372;2023-10-09T19:49:02;100817.59;;;20.78;59.52
12073;BME280;6098;49.004;8.372;2023-10-09T20:03:55;100830.59;;;20.61;59.48
12073;BME280;6098;49.004;8.372;2023-10-09T20:18:48;100825.73;;;20.41;60.50
12073;BME280;6098;49.004;8.372;2023-10-09T20:33:40;100842.39;;;20.22;61.36
12073;BME280;6098;49.004;8.372;2023-10-09T20:48:31;100837.40;;;20.16;61.40
12073;BME280;6098;49.004;8.372;2023-10-09T21:03:24;100856.10;;;20.06;62.04
12073;BME280;6098;49.004;8.372;2023-10-09T21:18:18;100860.81;;;19.89;63.43
12073;BME280;6098;49.004;8.372;2023-10-09T21:33:09;100880.45;;;19.72;64.86
12073;BME280;6098;49.004;8.372;2023-10-09T21:48:00;100892.16;;;19.32;66.45
12073;BME280;6098;49.004;8.372;2023-10-09T22:02:52;100904.13;;;18.99;67.97
12073;BME280;6098;49.004;8.372;2023-10-09T22:17:44;100891.48;;;18.74;68.67
12073;BME280;6098;49.004;8.372;2023-10-09T22:32:37;100886.53;;;18.54;69.54
12073;BME280;6098;49.004;8.372;2023-10-09T22:47:29;100887.99;;;18.45;70.13
12073;BME280;6098;49.004;8.372;2023-10-09T23:02:22;100887.02;;;18.25;71.44
12073;BME280;6098;49.004;8.372;2023-10-09T23:17:13;100872.17;;;18.05;71.99
12073;BME280;6098;49.004;8.372;2023-10-09T23:32:10;100875.84;;;17.81;73.12
12073;BME280;6098;49.004;8.372;2023-10-09T23:47:19;100886.91;;;17.83;73.11
